sensor_id;sensor_type;location;lat;lon;timestamp;temperature;humidity
68746;SHT31;73143;45.456;11.064;2023-10-13T00:02:20;21.12;65.34
68746;SHT31;73143;45.456;11.064;2023-10-13T00:04:57;21.06;65.65
68746;SHT31;73143;45.456;11.064;2023-10-13T00:07:37;21.04;65.79
68746;SHT31;73143;45.456;11.064;2023-10-13T00:10:15;21.01;65.88
68746;SHT31;73143;45.456;11.064;2023-10-13T00:12:52;20.99;65.97
68746;SHT31;73143;45.456;11.064;2023-10-13T00:15:42;21.00;66.04
68746;SHT31;73143;45.456;11.064;2023-10-13T00:18:29;21.02;66.08
68746;SHT31;73143;45.456;11.064;2023-10-13T00:21:10;21.02;66.31
68746;SHT31;73143;45.456;11.064;2023-10-13T00:24:00;21.02;66.39
68746;SHT31;73143;45.456;11.064;2023-10-13T00:26:44;21.03;66.32
68746;SHT31;73143;45.456;11.064;2023-10-13T00:29:23;21.04;66.28
68746;SHT31;73143;45.456;11.064;2023-10-13T00:32:06;21.05;66.21
68746;SHT31;73143;45.456;11.064;2023-10-13T00:34:45;21.08;66.10
68746;SHT31;73143;45.456;11.064;2023-10-13T00:37:25;21.10;65.96
68746;SHT31;73143;45.456;11.064;2023-10-13T00:40:11;21.10;66.01
68746;SHT31;73143;45.456;11.064;2023-10-13T00:43:09;21.10;66.00
68746;SHT31;73143;45.456;11.064;2023-10-13T00:46:10;21.11;65.92
68746;SHT31;73143;45.456;11.064;2023-10-13T00:48:49;21.11;65.81
68746;SHT31;73143;45.456;11.064;2023-10-13T00:51:26;21.12;65.79
68746;SHT31;73143;45.456;11.064;2023-10-13T00:54:05;21.11;65.69
68746;SHT31;73143;45.456;11.064;2023-10-13T00:56:42;21.10;65.59
68746;SHT31;73143;45.456;11.064;2023-10-13T00:59:26;21.10;65.60
68746;SHT31;73143;45.456;11.064;2023-10-13T01:02:12;21.11;65.60
68746;SHT31;73143;45.456;11.064;2023-10-13T01:05:01;21.13;65.53
68746;SHT31;73143;45.456;11.064;2023-10-13T01:07:40;21.13;65.69
68746;SHT31;73143;45.456;11.064;2023-10-13T01:10:22;21.12;65.98
68746;SHT31;73143;45.456;11.064;2023-10-13T01:13:01;21.11;66.11
68746;SHT31;73143;45.456;11.064;2023-10-13T01:15:39;21.06;66.19
68746;SHT31;73143;45.456;11.064;2023-10-13T01:18:18;21.01;66.30
68746;SHT31;73143;45.456;11.064;2023-10-13T01:20:57;20.96;66.51
68746;SHT31;73143;45.456;11.064;2023-10-13T01:23:38;20.89;66.61
68746;SHT31;73143;45.456;11.064;2023-10-13T01:26:16;20.87;66.62
68746;SHT31;73143;45.456;11.064;2023-10-13T01:28:59;20.86;66.56
68746;SHT31;73143;45.456;11.064;2023-10-13T01:31:42;20.89;66.74
68746;SHT31;73143;45.456;11.064;2023-10-13T01:34:20;20.92;66.80
68746;SHT31;73143;45.456;11.064;2023-10-13T01:36:57;20.93;66.80
68746;SHT31;73143;45.456;11.064;2023-10-13T01:39:36;20.95;66.75
68746;SHT31;73143;45.456;11.064;2023-10-13T01:42:17;20.98;66.88
68746;SHT31;73143;45.456;11.064;2023-10-13T01:44:54;20.96;66.88
68746;SHT31;73143;45.456;11.064;2023-10-13T01:47:34;20.94;66.97
68746;SHT31;73143;45.456;11.064;2023-10-13T01:50:15;20.90;67.15
68746;SHT31;73143;45.456;11.064;2023-10-13T01:52:58;20.89;67.29
68746;SHT31;73143;45.456;11.064;2023-10-13T01:55:42;20.90;67.35
68746;SHT31;73143;45.456;11.064;2023-10-13T01:58:18;20.91;67.30
68746;SHT31;73143;45.456;11.064;2023-10-13T02:00:58;20.91;67.30
68746;SHT31;73143;45.456;11.064;2023-10-13T02:03:36;20.91;67.38
68746;SHT31;73143;45.456;11.064;2023-10-13T02:06:16;20.89;67.43
68746;SHT31;73143;45.456;11.064;2023-10-13T02:08:53;20.89;67.49
68746;SHT31;73143;45.456;11.064;2023-10-13T02:11:39;20.85;67.59
68746;SHT31;73143;45.456;11.064;2023-10-13T02:14:21;20.82;67.63
68746;SHT31;73143;45.456;11.064;2023-10-13T02:17:01;20.79;67.84
68746;SHT31;73143;45.456;11.064;2023-10-13T02:19:46;20.73;68.03
68746;SHT31;73143;45.456;11.064;2023-10-13T02:22:23;20.70;68.00
68746;SHT31;73143;45.456;11.064;2023-10-13T02:25:01;20.68;68.04
68746;SHT31;73143;45.456;11.064;2023-10-13T02:27:46;20.65;68.00
68746;SHT31;73143;45.456;11.064;2023-10-13T02:30:28;20.61;68.07
68746;SHT31;73143;45.456;11.064;2023-10-13T02:33:08;20.60;68.00
68746;SHT31;73143;45.456;11.064;2023-10-13T02:35:51;20.58;67.92
68746;SHT31;73143;45.456;11.064;2023-10-13T02:38:27;20.56;67.89
68746;SHT31;73143;45.456;11.064;2023-10-13T02:41:15;20.57;67.80
68746;SHT31;73143;45.456;11.064;2023-10-13T02:43:56;20.56;67.76
68746;SHT31;73143;45.456;11.064;2023-10-13T02:46:37;20.55;67.79
68746;SHT31;73143;45.456;11.064;2023-10-13T02:49:19;20.57;67.68
68746;SHT31;73143;45.456;11.064;2023-10-13T02:52:00;20.60;67.55
68746;SHT31;73143;45.456;11.064;2023-10-13T02:54:37;20.61;67.41
68746;SHT31;73143;45.456;11.064;2023-10-13T02:57:15;20.61;67.36
68746;SHT31;73143;45.456;11.064;2023-10-13T02:59:52;20.61;67.40
68746;SHT31;73143;45.456;11.064;2023-10-13T03:02:40;20.59;67.37
68746;SHT31;73143;45.456;11.064;2023-10-13T03:05:28;20.56;67.40
68746;SHT31;73143;45.456;11.064;2023-10-13T03:08:08;20.53;67.34
68746;SHT31;73143;45.456;11.064;2023-10-13T03:10:55;20.51;67.32
68746;SHT31;73143;45.456;11.064;2023-10-13T03:13:36;20.50;67.30
68746;SHT31;73143;45.456;11.064;2023-10-13T03:16:14;20.49;67.24
68746;SHT31;73143;45.456;11.064;2023-10-13T03:18:51;20.47;67.27
68746;SHT31;73143;45.456;11.064;2023-10-13T03:21:28;20.46;67.29
68746;SHT31;73143;45.456;11.064;2023-10-13T03:24:06;20.44;67.30
68746;SHT31;73143;45.456;11.064;2023-10-13T03:26:45;20.41;67.31
68746;SHT31;73143;45.456;11.064;2023-10-13T03:29:22;20.37;67.33
68746;SHT31;73143;45.456;11.064;2023-10-13T03:31:59;20.33;67.40
68746;SHT31;73143;45.456;11.064;2023-10-13T03:34:44;20.30;67.43
68746;SHT31;73143;45.456;11.064;2023-10-13T03:37:35;20.27;67.46
68746;SHT31;73143;45.456;11.064;2023-10-13T03:40:13;20.25;67.50
68746;SHT31;73143;45.456;11.064;2023-10-13T03:43:03;20.24;67.55
68746;SHT31;73143;45.456;11.064;2023-10-13T03:45:40;20.22;67.56
68746;SHT31;73143;45.456;11.064;2023-10-13T03:48:18;20.21;67.53
68746;SHT31;73143;45.456;11.064;2023-10-13T03:50:59;20.22;67.53
68746;SHT31;73143;45.456;11.064;2023-10-13T03:53:39;20.23;67.51
68746;SHT31;73143;45.456;11.064;2023-10-13T03:56:24;20.25;67.45
68746;SHT31;73143;45.456;11.064;2023-10-13T03:59:10;20.28;67.38
68746;SHT31;73143;45.456;11.064;2023-10-13T04:01:49;20.32;67.21
68746;SHT31;73143;45.456;11.064;2023-10-13T04:04:32;20.35;67.13
68746;SHT31;73143;45.456;11.064;2023-10-13T04:07:13;20.36;67.05
68746;SHT31;73143;45.456;11.064;2023-10-13T04:10:09;20.38;67.00
68746;SHT31;73143;45.456;11.064;2023-10-13T04:13:04;20.38;66.98
68746;SHT31;73143;45.456;11.064;2023-10-13T04:16:12;20.41;66.98
68746;SHT31;73143;45.456;11.064;2023-10-13T04:19:02;20.42;66.90
68746;SHT31;73143;45.456;11.064;2023-10-13T04:21:51;20.43;66.74
68746;SHT31;73143;45.456;11.064;2023-10-13T04:24:29;20.42;66.95
68746;SHT31;73143;45.456;11.064;2023-10-13T04:27:22;20.41;67.20
68746;SHT31;73143;45.456;11.064;2023-10-13T04:30:14;20.39;67.46
68746;SHT31;73143;45.456;11.064;2023-10-13T04:33:01;20.36;67.68
68746;SHT31;73143;45.456;11.064;2023-10-13T04:36:06;20.33;67.79
68746;SHT31;73143;45.456;11.064;2023-10-13T04:38:46;20.30;68.07
68746;SHT31;73143;45.456;11.064;2023-10-13T04:41:30;20.27;68.24
68746;SHT31;73143;45.456;11.064;2023-10-13T04:44:13;20.23;68.24
68746;SHT31;73143;45.456;11.064;2023-10-13T04:47:04;20.24;68.02
68746;SHT31;73143;45.456;11.064;2023-10-13T04:49:51;20.28;67.87
68746;SHT31;73143;45.456;11.064;2023-10-13T04:52:30;20.31;67.62
68746;SHT31;73143;45.456;11.064;2023-10-13T04:55:30;20.33;67.36
68746;SHT31;73143;45.456;11.064;2023-10-13T04:58:28;20.37;67.49
68746;SHT31;73143;45.456;11.064;2023-10-13T05:01:37;20.38;67.30
68746;SHT31;73143;45.456;11.064;2023-10-13T05:04:32;20.38;67.84
68746;SHT31;73143;45.456;11.064;2023-10-13T05:07:29;20.35;68.12
68746;SHT31;73143;45.456;11.064;2023-10-13T05:10:23;20.35;68.18
68746;SHT31;73143;45.456;11.064;2023-10-13T05:13:28;20.35;68.16
68746;SHT31;73143;45.456;11.064;2023-10-13T05:16:23;20.35;68.40
68746;SHT31;73143;45.456;11.064;2023-10-13T05:19:17;20.28;68.74
68746;SHT31;73143;45.456;11.064;2023-10-13T05:22:11;20.19;69.10
68746;SHT31;73143;45.456;11.064;2023-10-13T05:25:05;20.14;69.41
68746;SHT31;73143;45.456;11.064;2023-10-13T09:03:24;22.44;65.25
68746;SHT31;73143;45.456;11.064;2023-10-13T09:06:08;22.48;65.17
68746;SHT31;73143;45.456;11.064;2023-10-13T09:08:49;22.53;64.84
68746;SHT31;73143;45.456;11.064;2023-10-13T09:11:36;22.55;64.93
68746;SHT31;73143;45.456;11.064;2023-10-13T09:14:33;22.60;64.72
68746;SHT31;73143;45.456;11.064;2023-10-13T09:17:13;22.66;64.54
68746;SHT31;73143;45.456;11.064;2023-10-13T09:20:04;22.70;64.40
68746;SHT31;73143;45.456;11.064;2023-10-13T09:23:07;22.74;64.40
68746;SHT31;73143;45.456;11.064;2023-10-13T09:25:53;22.78;64.36
68746;SHT31;73143;45.456;11.064;2023-10-13T09:28:41;22.83;64.33
68746;SHT31;73143;45.456;11.064;2023-10-13T09:31:23;22.86;64.22
68746;SHT31;73143;45.456;11.064;2023-10-13T09:34:01;22.89;64.16
68746;SHT31;73143;45.456;11.064;2023-10-13T09:36:39;22.92;64.13
68746;SHT31;73143;45.456;11.064;2023-10-13T09:39:17;22.95;64.03
68746;SHT31;73143;45.456;11.064;2023-10-13T09:42:06;22.98;63.83
68746;SHT31;73143;45.456;11.064;2023-10-13T09:44:47;23.00;63.80
68746;SHT31;73143;45.456;11.064;2023-10-13T09:47:28;23.04;63.76
68746;SHT31;73143;45.456;11.064;2023-10-13T09:50:10;23.10;63.71
68746;SHT31;73143;45.456;11.064;2023-10-13T09:52:54;23.17;63.57
68746;SHT31;73143;45.456;11.064;2023-10-13T09:55:35;23.23;63.37
68746;SHT31;73143;45.456;11.064;2023-10-13T09:58:16;23.31;63.20
68746;SHT31;73143;45.456;11.064;2023-10-13T10:00:58;23.36;63.10
68746;SHT31;73143;45.456;11.064;2023-10-13T10:03:46;23.41;62.94
68746;SHT31;73143;45.456;11.064;2023-10-13T10:06:37;23.47;62.82
68746;SHT31;73143;45.456;11.064;2023-10-13T10:09:28;23.53;62.73
68746;SHT31;73143;45.456;11.064;2023-10-13T10:15:22;23.64;62.38
68746;SHT31;73143;45.456;11.064;2023-10-13T10:18:19;23.69;62.23
68746;SHT31;73143;45.456;11.064;2023-10-13T10:21:04;23.71;62.23
68746;SHT31;73143;45.456;11.064;2023-10-13T10:23:51;23.73;62.00
68746;SHT31;73143;45.456;11.064;2023-10-13T10:26:32;23.72;61.67
68746;SHT31;73143;45.456;11.064;2023-10-13T10:29:12;23.74;61.71
68746;SHT31;73143;45.456;11.064;2023-10-13T10:31:48;23.79;61.52
68746;SHT31;73143;45.456;11.064;2023-10-13T10:34:29;23.85;61.38
68746;SHT31;73143;45.456;11.064;2023-10-13T10:37:05;23.96;61.32
68746;SHT31;73143;45.456;11.064;2023-10-13T10:39:42;24.07;61.19
68746;SHT31;73143;45.456;11.064;2023-10-13T10:42:26;24.18;60.91
68746;SHT31;73143;45.456;11.064;2023-10-13T10:45:07;24.27;60.59
68746;SHT31;73143;45.456;11.064;2023-10-13T10:47:51;24.37;60.25
68746;SHT31;73143;45.456;11.064;2023-10-13T10:50:27;24.45;60.01
68746;SHT31;73143;45.456;11.064;2023-10-13T10:53:06;24.54;59.82
68746;SHT31;73143;45.456;11.064;2023-10-13T10:55:45;24.62;59.66
68746;SHT31;73143;45.456;11.064;2023-10-13T10:58:21;24.72;59.46
68746;SHT31;73143;45.456;11.064;2023-10-13T11:01:14;24.81;58.90
68746;SHT31;73143;45.456;11.064;2023-10-13T11:03:55;24.91;58.27
68746;SHT31;73143;45.456;11.064;2023-10-13T11:06:47;24.98;57.91
68746;SHT31;73143;45.456;11.064;2023-10-13T11:09:25;25.05;57.48
68746;SHT31;73143;45.456;11.064;2023-10-13T11:12:13;25.10;57.11
68746;SHT31;73143;45.456;11.064;2023-10-13T11:15:02;25.18;56.65
68746;SHT31;73143;45.456;11.064;2023-10-13T11:17:51;25.26;56.31
68746;SHT31;73143;45.456;11.064;2023-10-13T11:20:27;25.35;55.79
68746;SHT31;73143;45.456;11.064;2023-10-13T11:23:13;25.45;55.60
68746;SHT31;73143;45.456;11.064;2023-10-13T11:26:00;25.54;55.34
68746;SHT31;73143;45.456;11.064;2023-10-13T11:28:38;25.60;55.04
68746;SHT31;73143;45.456;11.064;2023-10-13T11:31:25;25.57;55.04
68746;SHT31;73143;45.456;11.064;2023-10-13T11:34:02;25.53;54.96
68746;SHT31;73143;45.456;11.064;2023-10-13T11:36:45;25.49;55.17
68746;SHT31;73143;45.456;11.064;2023-10-13T11:39:23;25.43;55.29
68746;SHT31;73143;45.456;11.064;2023-10-13T11:42:10;25.36;55.37
68746;SHT31;73143;45.456;11.064;2023-10-13T11:44:47;25.31;55.32
68746;SHT31;73143;45.456;11.064;2023-10-13T11:47:44;25.36;55.31
68746;SHT31;73143;45.456;11.064;2023-10-13T11:50:28;25.48;55.20
68746;SHT31;73143;45.456;11.064;2023-10-13T11:53:04;25.61;55.22
68746;SHT31;73143;45.456;11.064;2023-10-13T11:55:42;25.64;55.07
68746;SHT31;73143;45.456;11.064;2023-10-13T11:58:18;25.63;54.47
68746;SHT31;73143;45.456;11.064;2023-10-13T12:00:55;25.60;54.24
68746;SHT31;73143;45.456;11.064;2023-10-13T12:03:49;25.57;54.26
68746;SHT31;73143;45.456;11.064;2023-10-13T12:06:46;25.53;54.05
68746;SHT31;73143;45.456;11.064;2023-10-13T12:09:32;25.51;53.84
68746;SHT31;73143;45.456;11.064;2023-10-13T12:12:31;25.50;53.63
68746;SHT31;73143;45.456;11.064;2023-10-13T12:15:12;25.48;53.48
68746;SHT31;73143;45.456;11.064;2023-10-13T12:18:06;25.47;53.12
68746;SHT31;73143;45.456;11.064;2023-10-13T12:20:43;25.47;53.02
68746;SHT31;73143;45.456;11.064;2023-10-13T12:23:21;25.46;53.25
68746;SHT31;73143;45.456;11.064;2023-10-13T12:26:01;25.47;53.10
68746;SHT31;73143;45.456;11.064;2023-10-13T12:28:48;25.48;52.91
68746;SHT31;73143;45.456;11.064;2023-10-13T12:31:35;25.52;52.86
68746;SHT31;73143;45.456;11.064;2023-10-13T12:34:20;25.54;52.65
68746;SHT31;73143;45.456;11.064;2023-10-13T12:37:15;25.56;52.32
68746;SHT31;73143;45.456;11.064;2023-10-13T12:40:09;25.55;51.71
68746;SHT31;73143;45.456;11.064;2023-10-13T12:43:05;25.55;51.20
68746;SHT31;73143;45.456;11.064;2023-10-13T12:45:58;25.56;50.75
68746;SHT31;73143;45.456;11.064;2023-10-13T12:49:06;25.57;50.78
68746;SHT31;73143;45.456;11.064;2023-10-13T12:52:05;25.58;50.97
68746;SHT31;73143;45.456;11.064;2023-10-13T12:54:48;25.58;51.13
68746;SHT31;73143;45.456;11.064;2023-10-13T12:57:40;25.58;51.66
68746;SHT31;73143;45.456;11.064;2023-10-13T13:00:18;25.57;51.57
68746;SHT31;73143;45.456;11.064;2023-10-13T13:03:02;25.56;51.31
68746;SHT31;73143;45.456;11.064;2023-10-13T13:05:42;25.56;51.07
68746;SHT31;73143;45.456;11.064;2023-10-13T13:08:24;25.57;50.88
68746;SHT31;73143;45.456;11.064;2023-10-13T13:11:04;25.56;51.22
68746;SHT31;73143;45.456;11.064;2023-10-13T13:13:42;25.56;51.22
68746;SHT31;73143;45.456;11.064;2023-10-13T13:16:18;25.57;51.20
68746;SHT31;73143;45.456;11.064;2023-10-13T13:18:59;25.58;51.22
68746;SHT31;73143;45.456;11.064;2023-10-13T13:21:43;25.59;50.83
68746;SHT31;73143;45.456;11.064;2023-10-13T13:24:20;25.61;50.27
68746;SHT31;73143;45.456;11.064;2023-10-13T13:26:59;25.64;49.63
68746;SHT31;73143;45.456;11.064;2023-10-13T13:29:36;25.69;49.04
68746;SHT31;73143;45.456;11.064;2023-10-13T13:32:13;25.75;48.90
68746;SHT31;73143;45.456;11.064;2023-10-13T13:34:54;25.78;48.57
68746;SHT31;73143;45.456;11.064;2023-10-13T13:37:34;25.79;48.43
68746;SHT31;73143;45.456;11.064;2023-10-13T13:40:13;25.78;48.65
68746;SHT31;73143;45.456;11.064;2023-10-13T13:42:52;25.78;49.04
68746;SHT31;73143;45.456;11.064;2023-10-13T13:45:30;25.78;49.26
68746;SHT31;73143;45.456;11.064;2023-10-13T13:48:10;25.81;49.18
68746;SHT31;73143;45.456;11.064;2023-10-13T13:50:46;25.87;48.97
68746;SHT31;73143;45.456;11.064;2023-10-13T13:53:25;25.95;48.76
68746;SHT31;73143;45.456;11.064;2023-10-13T13:56:03;26.02;48.53
68746;SHT31;73143;45.456;11.064;2023-10-13T13:58:40;26.08;47.88
68746;SHT31;73143;45.456;11.064;2023-10-13T14:01:18;26.06;47.94
68746;SHT31;73143;45.456;11.064;2023-10-13T14:03:58;26.03;47.97
68746;SHT31;73143;45.456;11.064;2023-10-13T14:06:37;25.99;47.50
68746;SHT31;73143;45.456;11.064;2023-10-13T14:09:14;25.96;46.32
68746;SHT31;73143;45.456;11.064;2023-10-13T14:12:02;25.97;46.31
68746;SHT31;73143;45.456;11.064;2023-10-13T14:15:11;26.00;46.57
68746;SHT31;73143;45.456;11.064;2023-10-13T14:17:52;26.02;46.81
68746;SHT31;73143;45.456;11.064;2023-10-13T14:20:34;26.05;47.10
68746;SHT31;73143;45.456;11.064;2023-10-13T14:23:12;26.05;47.08
68746;SHT31;73143;45.456;11.064;2023-10-13T14:25:51;26.07;46.81
68746;SHT31;73143;45.456;11.064;2023-10-13T14:28:27;26.07;46.96
68746;SHT31;73143;45.456;11.064;2023-10-13T14:31:06;26.06;46.90
68746;SHT31;73143;45.456;11.064;2023-10-13T14:33:44;26.06;46.72
68746;SHT31;73143;45.456;11.064;2023-10-13T14:36:22;26.08;46.99
68746;SHT31;73143;45.456;11.064;2023-10-13T14:39:04;26.09;46.92
68746;SHT31;73143;45.456;11.064;2023-10-13T14:41:42;26.08;47.00
68746;SHT31;73143;45.456;11.064;2023-10-13T14:44:18;26.05;47.14
68746;SHT31;73143;45.456;11.064;2023-10-13T14:46:56;26.02;47.20
68746;SHT31;73143;45.456;11.064;2023-10-13T14:49:34;25.98;47.23
68746;SHT31;73143;45.456;11.064;2023-10-13T14:52:12;25.92;47.34
68746;SHT31;73143;45.456;11.064;2023-10-13T14:54:48;25.87;47.40
68746;SHT31;73143;45.456;11.064;2023-10-13T14:57:26;25.83;47.52
68746;SHT31;73143;45.456;11.064;2023-10-13T15:00:09;25.81;47.82
68746;SHT31;73143;45.456;11.064;2023-10-13T15:02:58;25.82;48.14
68746;SHT31;73143;45.456;11.064;2023-10-13T15:05:39;25.83;48.14
68746;SHT31;73143;45.456;11.064;2023-10-13T15:08:16;25.84;48.12
68746;SHT31;73143;45.456;11.064;2023-10-13T15:10:53;25.85;48.09
68746;SHT31;73143;45.456;11.064;2023-10-13T15:13:41;25.86;48.10
68746;SHT31;73143;45.456;11.064;2023-10-13T15:16:19;25.85;48.04
68746;SHT31;73143;45.456;11.064;2023-10-13T15:18:56;25.84;47.84
68746;SHT31;73143;45.456;11.064;2023-10-13T15:21:35;25.81;47.69
68746;SHT31;73143;45.456;11.064;2023-10-13T15:24:17;25.77;47.93
68746;SHT31;73143;45.456;11.064;2023-10-13T15:27:00;25.75;48.11
68746;SHT31;73143;45.456;11.064;2023-10-13T15:29:38;25.73;48.28
68746;SHT31;73143;45.456;11.064;2023-10-13T15:32:19;25.68;48.45
68746;SHT31;73143;45.456;11.064;2023-10-13T15:35:15;25.65;48.54
68746;SHT31;73143;45.456;11.064;2023-10-13T15:37:57;25.62;48.62
68746;SHT31;73143;45.456;11.064;2023-10-13T15:40:35;25.60;48.74
68746;SHT31;73143;45.456;11.064;2023-10-13T15:43:16;25.56;48.85
68746;SHT31;73143;45.456;11.064;2023-10-13T15:45:53;25.52;48.75
68746;SHT31;73143;45.456;11.064;2023-10-13T15:48:59;25.48;48.91
68746;SHT31;73143;45.456;11.064;2023-10-13T15:51:43;25.43;49.08
68746;SHT31;73143;45.456;11.064;2023-10-13T15:54:19;25.39;49.14
68746;SHT31;73143;45.456;11.064;2023-10-13T15:56:56;25.34;49.14
68746;SHT31;73143;45.456;11.064;2023-10-13T15:59:35;25.30;49.23
68746;SHT31;73143;45.456;11.064;2023-10-13T16:02:14;25.25;49.37
68746;SHT31;73143;45.456;11.064;2023-10-13T16:04:53;25.20;49.48
68746;SHT31;73143;45.456;11.064;2023-10-13T16:07:35;25.15;49.57
68746;SHT31;73143;45.456;11.064;2023-10-13T16:10:13;25.11;49.68
68746;SHT31;73143;45.456;11.064;2023-10-13T16:12:52;25.07;50.36
68746;SHT31;73143;45.456;11.064;2023-10-13T16:15:29;25.02;50.37
68746;SHT31;73143;45.456;11.064;2023-10-13T16:18:11;24.96;50.45
68746;SHT31;73143;45.456;11.064;2023-10-13T16:20:51;24.91;50.71
68746;SHT31;73143;45.456;11.064;2023-10-13T16:23:28;24.86;51.01
68746;SHT31;73143;45.456;11.064;2023-10-13T16:26:08;24.81;51.93
68746;SHT31;73143;45.456;11.064;2023-10-13T16:28:45;24.70;52.60
68746;SHT31;73143;45.456;11.064;2023-10-13T16:31:23;24.59;53.08
68746;SHT31;73143;45.456;11.064;2023-10-13T16:33:59;24.50;53.50
68746;SHT31;73143;45.456;11.064;2023-10-13T16:36:36;24.43;53.74
68746;SHT31;73143;45.456;11.064;2023-10-13T16:39:15;24.34;54.30
68746;SHT31;73143;45.456;11.064;2023-10-13T16:41:54;24.23;54.48
68746;SHT31;73143;45.456;11.064;2023-10-13T16:44:36;24.05;54.70
68746;SHT31;73143;45.456;11.064;2023-10-13T16:47:13;23.91;54.86
68746;SHT31;73143;45.456;11.064;2023-10-13T16:49:50;23.79;55.03
68746;SHT31;73143;45.456;11.064;2023-10-13T16:52:27;23.65;55.17
68746;SHT31;73143;45.456;11.064;2023-10-13T16:55:05;23.57;55.32
68746;SHT31;73143;45.456;11.064;2023-10-13T16:57:47;23.52;55.45
68746;SHT31;73143;45.456;11.064;2023-10-13T17:00:24;23.46;55.49
68746;SHT31;73143;45.456;11.064;2023-10-13T17:03:01;23.42;55.69
68746;SHT31;73143;45.456;11.064;2023-10-13T17:05:41;23.38;55.73
68746;SHT31;73143;45.456;11.064;2023-10-13T17:08:20;23.34;55.70
68746;SHT31;73143;45.456;11.064;2023-10-13T17:10:58;23.31;55.65
68746;SHT31;73143;45.456;11.064;2023-10-13T17:13:43;23.25;55.83
68746;SHT31;73143;45.456;11.064;2023-10-13T17:16:22;23.20;55.90
68746;SHT31;73143;45.456;11.064;2023-10-13T17:19:00;23.15;56.03
68746;SHT31;73143;45.456;11.064;2023-10-13T17:21:37;23.11;56.01
68746;SHT31;73143;45.456;11.064;2023-10-13T17:24:18;23.04;56.05
68746;SHT31;73143;45.456;11.064;2023-10-13T17:26:58;22.99;56.13
68746;SHT31;73143;45.456;11.064;2023-10-13T17:29:37;22.91;56.25
68746;SHT31;73143;45.456;11.064;2023-10-13T17:32:13;22.84;56.43
68746;SHT31;73143;45.456;11.064;2023-10-13T17:34:52;22.77;56.57
68746;SHT31;73143;45.456;11.064;2023-10-13T17:37:29;22.73;56.63
68746;SHT31;73143;45.456;11.064;2023-10-13T17:40:10;22.72;56.70
68746;SHT31;73143;45.456;11.064;2023-10-13T17:42:49;22.67;56.76
68746;SHT31;73143;45.456;11.064;2023-10-13T17:45:26;22.58;56.96
68746;SHT31;73143;45.456;11.064;2023-10-13T17:48:05;22.50;57.12
68746;SHT31;73143;45.456;11.064;2023-10-13T17:50:43;22.45;57.26
68746;SHT31;73143;45.456;11.064;2023-10-13T17:53:20;22.44;57.40
68746;SHT31;73143;45.456;11.064;2023-10-13T17:56:04;22.39;57.45
68746;SHT31;73143;45.456;11.064;2023-10-13T17:58:45;22.37;57.59
68746;SHT31;73143;45.456;11.064;2023-10-13T18:01:22;22.32;57.71
68746;SHT31;73143;45.456;11.064;2023-10-13T18:04:00;22.31;57.68
68746;SHT31;73143;45.456;11.064;2023-10-13T18:06:42;22.29;57.70
68746;SHT31;73143;45.456;11.064;2023-10-13T18:09:21;22.27;57.75
68746;SHT31;73143;45.456;11.064;2023-10-13T18:11:58;22.25;57.75
68746;SHT31;73143;45.456;11.064;2023-10-13T18:14:36;22.23;57.80
68746;SHT31;73143;45.456;11.064;2023-10-13T18:17:14;22.22;57.82
68746;SHT31;73143;45.456;11.064;2023-10-13T18:19:50;22.20;57.89
68746;SHT31;73143;45.456;11.064;2023-10-13T18:22:26;22.19;57.90
68746;SHT31;73143;45.456;11.064;2023-10-13T18:25:03;22.17;57.91
68746;SHT31;73143;45.456;11.064;2023-10-13T18:27:44;22.14;57.97
68746;SHT31;73143;45.456;11.064;2023-10-13T18:30:23;22.12;58.00
68746;SHT31;73143;45.456;11.064;2023-10-13T18:33:02;22.11;58.02
68746;SHT31;73143;45.456;11.064;2023-10-13T18:35:40;22.11;58.02
68746;SHT31;73143;45.456;11.064;2023-10-13T18:38:18;22.11;57.94
68746;SHT31;73143;45.456;11.064;2023-10-13T18:40:59;22.10;57.92
68746;SHT31;73143;45.456;11.064;2023-10-13T18:43:36;22.10;57.91
68746;SHT31;73143;45.456;11.064;2023-10-13T18:46:12;22.07;57.94
68746;SHT31;73143;45.456;11.064;2023-10-13T18:48:50;22.05;57.97
68746;SHT31;73143;45.456;11.064;2023-10-13T18:51:27;22.03;57.98
68746;SHT31;73143;45.456;11.064;2023-10-13T18:54:05;22.05;57.90
68746;SHT31;73143;45.456;11.064;2023-10-13T18:56:42;22.03;57.83
68746;SHT31;73143;45.456;11.064;2023-10-13T18:59:19;22.03;57.75
68746;SHT31;73143;45.456;11.064;2023-10-13T19:01:55;22.02;57.70
68746;SHT31;73143;45.456;11.064;2023-10-13T19:04:32;22.02;57.69
68746;SHT31;73143;45.456;11.064;2023-10-13T19:07:08;21.99;57.83
68746;SHT31;73143;45.456;11.064;2023-10-13T19:09:44;21.99;57.70
68746;SHT31;73143;45.456;11.064;2023-10-13T19:12:20;21.97;57.70
68746;SHT31;73143;45.456;11.064;2023-10-13T19:14:57;21.97;57.65
68746;SHT31;73143;45.456;11.064;2023-10-13T19:17:35;21.97;57.61
68746;SHT31;73143;45.456;11.064;2023-10-13T19:20:13;21.97;57.52
68746;SHT31;73143;45.456;11.064;2023-10-13T19:22:49;21.98;57.47
68746;SHT31;73143;45.456;11.064;2023-10-13T19:25:25;21.99;57.39
68746;SHT31;73143;45.456;11.064;2023-10-13T19:28:07;21.99;57.30
68746;SHT31;73143;45.456;11.064;2023-10-13T19:30:44;22.00;57.20
68746;SHT31;73143;45.456;11.064;2023-10-13T19:33:21;22.00;57.16
68746;SHT31;73143;45.456;11.064;2023-10-13T19:35:57;21.98;57.14
68746;SHT31;73143;45.456;11.064;2023-10-13T19:38:37;21.98;57.10
68746;SHT31;73143;45.456;11.064;2023-10-13T19:41:14;21.98;57.05
68746;SHT31;73143;45.456;11.064;2023-10-13T19:43:54;21.95;57.08
68746;SHT31;73143;45.456;11.064;2023-10-13T19:46:33;21.92;57.07
68746;SHT31;73143;45.456;11.064;2023-10-13T19:49:09;21.90;57.04
68746;SHT31;73143;45.456;11.064;2023-10-13T19:51:47;21.88;57.06
68746;SHT31;73143;45.456;11.064;2023-10-13T19:54:27;21.85;57.06
68746;SHT31;73143;45.456;11.064;2023-10-13T19:57:03;21.84;57.10
68746;SHT31;73143;45.456;11.064;2023-10-13T19:59:39;21.83;57.09
68746;SHT31;73143;45.456;11.064;2023-10-13T20:02:17;21.80;57.13
68746;SHT31;73143;45.456;11.064;2023-10-13T20:04:54;21.78;57.14
68746;SHT31;73143;45.456;11.064;2023-10-13T20:07:34;21.77;57.19
68746;SHT31;73143;45.456;11.064;2023-10-13T20:10:10;21.74;57.20
68746;SHT31;73143;45.456;11.064;2023-10-13T20:12:47;21.73;57.24
68746;SHT31;73143;45.456;11.064;2023-10-13T20:15:24;21.70;57.31
68746;SHT31;73143;45.456;11.064;2023-10-13T20:18:02;21.70;57.33
68746;SHT31;73143;45.456;11.064;2023-10-13T20:20:40;21.70;57.32
68746;SHT31;73143;45.456;11.064;2023-10-13T20:23:17;21.70;57.35
68746;SHT31;73143;45.456;11.064;2023-10-13T20:25:54;21.68;57.30